sensor_id;sensor_type;location;lat;lon;timestamp;pressure;altitude;pressure_sealevel;temperature;humidity
23574;BME280;11965;53.640;10.050;2023-06-10T00:01:23;101716.59;;;13.37;100.00
23574;BME280;11965;53.640;10.050;2023-06-10T00:03:50;101723.44;;;13.34;100.00
23574;BME280;11965;53.640;10.050;2023-06-10T00:06:18;101713.34;;;13.33;100.00
23574;BME280;11965;53.640;10.050;2023-06-10T00:08:47;101714.28;;;13.25;100.00
23574;BME280;11965;53.640;10.050;2023-06-10T00:11:13;101727.44;;;13.17;100.00
23574;BME280;11965;53.640;10.050;2023-06-10T00:13:42;101727.22;;;13.18;100.00
23574;BME280;11965;53.640;10.050;2023-06-10T00:16:08;101712.81;;;13.15;100.00
23574;BME280;11965;53.640;10.050;2023-06-10T00:18:35;101726.28;;;13.11;100.00
23574;BME280;11965;53.640;10.050;2023-06-10T00:21:04;101723.38;;;13.04;100.00
23574;BME280;11965;53.640;10.050;2023-06-10T00:23:31;101725.09;;;13.05;100.00
23574;BME280;11965;53.640;10.050;2023-06-10T00:26:03;101719.72;;;13.04;100.00
23574;BME280;11965;53.640;10.050;2023-06-10T00:28:30;101717.25;;;13.09;100.00
23574;BME280;11965;53.640;10.050;2023-06-10T00:30:58;101713.09;;;13.05;100.00
23574;BME280;11965;53.640;10.050;2023-06-10T00:33:25;101714.72;;;12.99;100.00
23574;BME280;11965;53.640;10.050;2023-06-10T00:35:53;101710.59;;;12.95;100.00
23574;BME280;11965;53.640;10.050;2023-06-10T00:38:20;101708.84;;;12.94;100.00
23574;BME280;11965;53.640;10.050;2023-06-10T00:40:47;101704.06;;;12.88;100.00
23574;BME280;11965;53.640;10.050;2023-06-10T00:43:15;101711.16;;;12.91;100.00
23574;BME280;11965;53.640;10.050;2023-06-10T00:45:41;101709.78;;;12.87;100.00
23574;BME280;11965;53.640;10.050;2023-06-10T00:48:10;101708.84;;;12.79;100.00
23574;BME280;11965;53.640;10.050;2023-06-10T00:50:37;101713.72;;;12.77;100.00
23574;BME280;11965;53.640;10.050;2023-06-10T00:53:05;101720.03;;;12.71;100.00
23574;BME280;11965;53.640;10.050;2023-06-10T00:55:33;101720.91;;;12.72;100.00
23574;BME280;11965;53.640;10.050;2023-06-10T00:58:00;101720.44;;;12.68;100.00
23574;BME280;11965;53.640;10.050;2023-06-10T01:00:27;101725.47;;;12.65;100.00
23574;BME280;11965;53.640;10.050;2023-06-10T01:02:54;101720.50;;;12.60;100.00
23574;BME280;11965;53.640;10.050;2023-06-10T01:05:23;101724.22;;;12.52;100.00
23574;BME280;11965;53.640;10.050;2023-06-10T01:07:59;101725.13;;;12.45;100.00
23574;BME280;11965;53.640;10.050;2023-06-10T01:10:33;101722.22;;;12.38;100.00
23574;BME280;11965;53.640;10.050;2023-06-10T01:13:05;101721.03;;;12.32;100.00
23574;BME280;11965;53.640;10.050;2023-06-10T01:15:34;101723.44;;;12.35;100.00
23574;BME280;11965;53.640;10.050;2023-06-10T01:18:03;101718.84;;;12.28;100.00
23574;BME280;11965;53.640;10.050;2023-06-10T01:20:37;101724.94;;;12.23;100.00
23574;BME280;11965;53.640;10.050;2023-06-10T01:23:08;101729.13;;;12.19;100.00
23574;BME280;11965;53.640;10.050;2023-06-10T01:25:38;101733.97;;;12.25;100.00
23574;BME280;11965;53.640;10.050;2023-06-10T01:28:12;101726.88;;;12.23;100.00
23574;BME280;11965;53.640;10.050;2023-06-10T01:30:58;101729.06;;;12.27;100.00
23574;BME280;11965;53.640;10.050;2023-06-10T01:33:31;101732.44;;;12.23;100.00
23574;BME280;11965;53.640;10.050;2023-06-10T01:36:02;101733.28;;;12.23;100.00
23574;BME280;11965;53.640;10.050;2023-06-10T01:38:35;101726.19;;;12.21;100.00
23574;BME280;11965;53.640;10.050;2023-06-10T01:41:04;101730.50;;;12.23;100.00
23574;BME280;11965;53.640;10.050;2023-06-10T01:43:33;101736.81;;;12.17;100.00
23574;BME280;11965;53.640;10.050;2023-06-10T01:46:00;101736.50;;;12.12;100.00
23574;BME280;11965;53.640;10.050;2023-06-10T01:48:27;101730.94;;;12.12;100.00
23574;BME280;11965;53.640;10.050;2023-06-10T01:50:54;101733.19;;;12.08;100.00
23574;BME280;11965;53.640;10.050;2023-06-10T01:53:21;101732.22;;;12.01;100.00
23574;BME280;11965;53.640;10.050;2023-06-10T01:55:50;101739.31;;;12.04;100.00
23574;BME280;11965;53.640;10.050;2023-06-10T01:58:17;101733.00;;;12.10;100.00
23574;BME280;11965;53.640;10.050;2023-06-10T02:00:44;101721.59;;;12.05;100.00
23574;BME280;11965;53.640;10.050;2023-06-10T02:03:11;101725.06;;;12.07;100.00
23574;BME280;11965;53.640;10.050;2023-06-10T02:05:38;101723.13;;;12.07;100.00
23574;BME280;11965;53.640;10.050;2023-06-10T02:08:05;101719.50;;;12.07;100.00
23574;BME280;11965;53.640;10.050;2023-06-10T02:10:32;101724.69;;;12.10;100.00
23574;BME280;11965;53.640;10.050;2023-06-10T02:13:00;101724.84;;;12.08;100.00
23574;BME280;11965;53.640;10.050;2023-06-10T02:15:27;101721.75;;;12.03;100.00
23574;BME280;11965;53.640;10.050;2023-06-10T02:17:54;101718.97;;;12.03;100.00
23574;BME280;11965;53.640;10.050;2023-06-10T02:20:21;101717.63;;;11.99;100.00
23574;BME280;11965;53.640;10.050;2023-06-10T02:22:48;101719.22;;;11.93;100.00
23574;BME280;11965;53.640;10.050;2023-06-10T02:25:15;101722.38;;;11.90;100.00
23574;BME280;11965;53.640;10.050;2023-06-10T02:27:42;101722.72;;;11.87;100.00
23574;BME280;11965;53.640;10.050;2023-06-10T02:30:11;101731.25;;;11.86;100.00
23574;BME280;11965;53.640;10.050;2023-06-10T02:32:39;101717.00;;;11.81;100.00
23574;BME280;11965;53.640;10.050;2023-06-10T02:35:06;101711.13;;;11.76;100.00
23574;BME280;11965;53.640;10.050;2023-06-10T02:37:33;101707.13;;;11.78;100.00
23574;BME280;11965;53.640;10.050;2023-06-10T02:40:00;101716.88;;;11.74;100.00
23574;BME280;11965;53.640;10.050;2023-06-10T02:42:27;101724.19;;;11.67;100.00
23574;BME280;11965;53.640;10.050;2023-06-10T02:44:54;101724.34;;;11.65;100.00
23574;BME280;11965;53.640;10.050;2023-06-10T02:47:33;101723.00;;;11.61;100.00
23574;BME280;11965;53.640;10.050;2023-06-10T02:50:00;101727.00;;;11.59;100.00
23574;BME280;11965;53.640;10.050;2023-06-10T02:52:30;101718.47;;;11.60;100.00
23574;BME280;11965;53.640;10.050;2023-06-10T02:54:57;101712.88;;;11.68;100.00
23574;BME280;11965;53.640;10.050;2023-06-10T02:57:24;101717.44;;;11.61;100.00
23574;BME280;11965;53.640;10.050;2023-06-10T02:59:51;101728.34;;;11.63;100.00
23574;BME280;11965;53.640;10.050;2023-06-10T03:02:19;101728.69;;;11.68;100.00
23574;BME280;11965;53.640;10.050;2023-06-10T03:04:51;101738.97;;;11.59;100.00
23574;BME280;11965;53.640;10.050;2023-06-10T03:07:19;101728.03;;;11.58;100.00
23574;BME280;11965;53.640;10.050;2023-06-10T03:09:47;101731.16;;;11.55;100.00
23574;BME280;11965;53.640;10.050;2023-06-10T03:12:14;101732.03;;;11.55;100.00
23574;BME280;11965;53.640;10.050;2023-06-10T03:14:45;101731.53;;;11.52;100.00
23574;BME280;11965;53.640;10.050;2023-06-10T03:17:12;101730.50;;;11.53;100.00
23574;BME280;11965;53.640;10.050;2023-06-10T03:19:41;101732.59;;;11.50;100.00
23574;BME280;11965;53.640;10.050;2023-06-10T03:22:12;101727.72;;;11.53;100.00
23574;BME280;11965;53.640;10.050;2023-06-10T03:24:45;101740.56;;;11.54;100.00
23574;BME280;11965;53.640;10.050;2023-06-10T03:27:16;101736.34;;;11.58;100.00
23574;BME280;11965;53.640;10.050;2023-06-10T03:29:46;101734.28;;;11.60;100.00
23574;BME280;11965;53.640;10.050;2023-06-10T03:32:12;101742.25;;;11.63;100.00
23574;BME280;11965;53.640;10.050;2023-06-10T03:34:47;101742.78;;;11.66;100.00
23574;BME280;11965;53.640;10.050;2023-06-10T03:37:16;101740.31;;;11.71;100.00
23574;BME280;11965;53.640;10.050;2023-06-10T03:39:46;101732.47;;;11.75;100.00
23574;BME280;11965;53.640;10.050;2023-06-10T03:42:13;101736.06;;;11.84;100.00
23574;BME280;11965;53.640;10.050;2023-06-10T03:44:40;101738.69;;;11.85;100.00
23574;BME280;11965;53.640;10.050;2023-06-10T03:47:07;101735.38;;;11.90;100.00
23574;BME280;11965;53.640;10.050;2023-06-10T03:49:35;101736.44;;;11.89;100.00
23574;BME280;11965;53.640;10.050;2023-06-10T03:52:02;101726.03;;;11.83;100.00
23574;BME280;11965;53.640;10.050;2023-06-10T03:54:31;101735.03;;;11.93;100.00
23574;BME280;11965;53.640;10.050;2023-06-10T03:57:00;101739.00;;;11.99;100.00
23574;BME280;11965;53.640;10.050;2023-06-10T03:59:27;101741.03;;;12.05;100.00
23574;BME280;11965;53.640;10.050;2023-06-10T04:01:54;101739.75;;;12.15;100.00
23574;BME280;11965;53.640;10.050;2023-06-10T04:04:22;101732.22;;;12.24;100.00
23574;BME280;11965;53.640;10.050;2023-06-10T04:06:50;101734.63;;;12.27;100.00
23574;BME280;11965;53.640;10.050;2023-06-10T04:09:16;101739.59;;;12.40;100.00
23574;BME280;11965;53.640;10.050;2023-06-10T04:11:45;101747.00;;;12.48;100.00
23574;BME280;11965;53.640;10.050;2023-06-10T04:14:12;101745.78;;;12.50;100.00
23574;BME280;11965;53.640;10.050;2023-06-10T04:16:40;101744.47;;;12.61;100.00
23574;BME280;11965;53.640;10.050;2023-06-10T04:19:08;101740.38;;;12.72;100.00
23574;BME280;11965;53.640;10.050;2023-06-10T04:21:37;101745.69;;;12.81;100.00
23574;BME280;11965;53.640;10.050;2023-06-10T04:24:06;101735.72;;;12.87;100.00
23574;BME280;11965;53.640;10.050;2023-06-10T04:26:34;101744.31;;;13.00;100.00
23574;BME280;11965;53.640;10.050;2023-06-10T04:29:04;101735.88;;;13.09;100.00
23574;BME280;11965;53.640;10.050;2023-06-10T04:31:31;101732.56;;;13.28;100.00
23574;BME280;11965;53.640;10.050;2023-06-10T04:33:59;101731.41;;;13.52;100.00
23574;BME280;11965;53.640;10.050;2023-06-10T04:36:26;101730.69;;;13.80;100.00
23574;BME280;11965;53.640;10.050;2023-06-10T04:38:55;101722.91;;;13.90;100.00
23574;BME280;11965;53.640;10.050;2023-06-10T04:41:22;101736.63;;;13.91;100.00
23574;BME280;11965;53.640;10.050;2023-06-10T04:43:49;101720.06;;;14.05;100.00
23574;BME280;11965;53.640;10.050;2023-06-10T04:46:18;101728.28;;;14.28;100.00
23574;BME280;11965;53.640;10.050;2023-06-10T04:48:45;101725.53;;;14.34;100.00
23574;BME280;11965;53.640;10.050;2023-06-10T04:51:12;101728.28;;;14.49;99.70
23574;BME280;11965;53.640;10.050;2023-06-10T04:53:39;101726.88;;;14.53;98.30
23574;BME280;11965;53.640;10.050;2023-06-10T04:56:10;101723.53;;;14.65;98.55
23574;BME280;11965;53.640;10.050;2023-06-10T04:58:36;101728.13;;;14.72;100.00
23574;BME280;11965;53.640;10.050;2023-06-10T05:01:03;101728.50;;;14.69;99.85
23574;BME280;11965;53.640;10.050;2023-06-10T05:03:34;101730.44;;;14.69;99.04
23574;BME280;11965;53.640;10.050;2023-06-10T05:06:00;101727.72;;;14.54;100.00
23574;BME280;11965;53.640;10.050;2023-06-10T05:08:30;101728.19;;;14.57;100.00
23574;BME280;11965;53.640;10.050;2023-06-10T05:10:56;101726.47;;;14.56;100.00
23574;BME280;11965;53.640;10.050;2023-06-10T05:13:23;101736.97;;;14.54;100.00
23574;BME280;11965;53.640;10.050;2023-06-10T05:15:53;101726.66;;;14.55;100.00
23574;BME280;11965;53.640;10.050;2023-06-10T05:18:20;101730.50;;;14.54;100.00
23574;BME280;11965;53.640;10.050;2023-06-10T05:20:48;101733.44;;;14.67;100.00
23574;BME280;11965;53.640;10.050;2023-06-10T05:23:15;101734.69;;;14.86;100.00
23574;BME280;11965;53.640;10.050;2023-06-10T05:25:42;101737.00;;;14.83;100.00
23574;BME280;11965;53.640;10.050;2023-06-10T05:28:09;101737.47;;;14.86;99.61
23574;BME280;11965;53.640;10.050;2023-06-10T05:30:37;101732.53;;;14.88;97.58
23574;BME280;11965;53.640;10.050;2023-06-10T05:33:04;101730.31;;;15.05;99.46
23574;BME280;11965;53.640;10.050;2023-06-10T05:35:31;101729.09;;;15.14;96.59
23574;BME280;11965;53.640;10.050;2023-06-10T05:37:59;101731.22;;;15.40;95.79
23574;BME280;11965;53.640;10.050;2023-06-10T05:40:26;101731.28;;;15.54;92.28
23574;BME280;11965;53.640;10.050;2023-06-10T05:42:53;101710.00;;;15.53;91.62
23574;BME280;11965;53.640;10.050;2023-06-10T05:45:20;101732.75;;;15.78;92.39
23574;BME280;11965;53.640;10.050;2023-06-10T05:47:48;101723.19;;;15.65;88.81
23574;BME280;11965;53.640;10.050;2023-06-10T05:50:16;101731.00;;;15.77;87.56
23574;BME280;11965;53.640;10.050;2023-06-10T05:52:43;101727.22;;;15.91;87.00
23574;BME280;11965;53.640;10.050;2023-06-10T05:55:11;101723.81;;;16.02;87.45
23574;BME280;11965;53.640;10.050;2023-06-10T05:57:41;101726.59;;;16.02;84.71
23574;BME280;11965;53.640;10.050;2023-06-10T06:00:09;101719.97;;;16.17;85.89
23574;BME280;11965;53.640;10.050;2023-06-10T06:02:38;101723.47;;;16.39;83.77
23574;BME280;11965;53.640;10.050;2023-06-10T06:05:06;101725.44;;;16.51;83.84
23574;BME280;11965;53.640;10.050;2023-06-10T06:07:33;101729.97;;;16.59;82.16
23574;BME280;11965;53.640;10.050;2023-06-10T06:09:59;101726.75;;;16.55;81.65
23574;BME280;11965;53.640;10.050;2023-06-10T06:12:28;101713.56;;;16.36;80.64
23574;BME280;11965;53.640;10.050;2023-06-10T06:14:54;101719.63;;;16.53;81.75
23574;BME280;11965;53.640;10.050;2023-06-10T06:17:21;101718.13;;;16.57;80.67
23574;BME280;11965;53.640;10.050;2023-06-10T06:19:48;101715.78;;;16.74;82.46
23574;BME280;11965;53.640;10.050;2023-06-10T06:22:15;101707.84;;;16.91;80.25
23574;BME280;11965;53.640;10.050;2023-06-10T06:24:45;101707.00;;;17.04;79.13
23574;BME280;11965;53.640;10.050;2023-06-10T06:27:12;101708.88;;;17.16;76.82
23574;BME280;11965;53.640;10.050;2023-06-10T06:29:40;101704.78;;;17.19;76.43
23574;BME280;11965;53.640;10.050;2023-06-10T06:32:08;101710.00;;;17.09;77.46
23574;BME280;11965;53.640;10.050;2023-06-10T06:34:35;101720.09;;;17.16;75.70
23574;BME280;11965;53.640;10.050;2023-06-10T06:37:02;101710.19;;;17.20;76.98
23574;BME280;11965;53.640;10.050;2023-06-10T06:39:31;101714.03;;;17.33;76.64
23574;BME280;11965;53.640;10.050;2023-06-10T06:41:58;101712.13;;;17.33;79.13
23574;BME280;11965;53.640;10.050;2023-06-10T06:44:43;101699.13;;;17.45;76.21
23574;BME280;11965;53.640;10.050;2023-06-10T06:47:10;101702.75;;;17.59;74.59
23574;BME280;11965;53.640;10.050;2023-06-10T06:49:37;101710.75;;;17.62;73.46
23574;BME280;11965;53.640;10.050;2023-06-10T06:52:05;101708.75;;;17.83;74.67
23574;BME280;11965;53.640;10.050;2023-06-10T06:54:32;101710.41;;;17.97;72.17
23574;BME280;11965;53.640;10.050;2023-06-10T06:56:59;101701.38;;;17.95;73.47
23574;BME280;11965;53.640;10.050;2023-06-10T06:59:25;101708.09;;;18.26;74.49
23574;BME280;11965;53.640;10.050;2023-06-10T07:01:54;101714.13;;;18.61;69.53
23574;BME280;11965;53.640;10.050;2023-06-10T07:04:21;101722.41;;;18.18;69.22
23574;BME280;11965;53.640;10.050;2023-06-10T07:06:48;101724.56;;;18.16;71.29
23574;BME280;11965;53.640;10.050;2023-06-10T07:09:15;101726.66;;;17.82;72.21
23574;BME280;11965;53.640;10.050;2023-06-10T07:11:42;101714.53;;;17.95;71.00
23574;BME280;11965;53.640;10.050;2023-06-10T07:14:09;101722.00;;;18.07;72.94
23574;BME280;11965;53.640;10.050;2023-06-10T07:16:36;101718.88;;;18.29;72.43
23574;BME280;11965;53.640;10.050;2023-06-10T07:19:04;101717.34;;;18.33;71.91
23574;BME280;11965;53.640;10.050;2023-06-10T07:21:31;101727.09;;;18.30;69.51
23574;BME280;11965;53.640;10.050;2023-06-10T07:23:59;101727.72;;;18.32;70.55
23574;BME280;11965;53.640;10.050;2023-06-10T07:26:26;101723.09;;;18.45;71.36
23574;BME280;11965;53.640;10.050;2023-06-10T07:28:53;101725.19;;;18.88;70.54
23574;BME280;11965;53.640;10.050;2023-06-10T07:31:20;101728.88;;;19.13;69.33
23574;BME280;11965;53.640;10.050;2023-06-10T07:33:47;101733.34;;;19.39;68.77
23574;BME280;11965;53.640;10.050;2023-06-10T07:36:15;101728.44;;;18.91;68.21
23574;BME280;11965;53.640;10.050;2023-06-10T07:38:42;101723.41;;;18.93;68.51
23574;BME280;11965;53.640;10.050;2023-06-10T07:41:09;101731.25;;;19.10;68.96
23574;BME280;11965;53.640;10.050;2023-06-10T07:43:36;101726.91;;;19.14;67.21
23574;BME280;11965;53.640;10.050;2023-06-10T07:46:03;101725.25;;;19.06;67.54
23574;BME280;11965;53.640;10.050;2023-06-10T07:48:30;101718.53;;;19.07;66.18
23574;BME280;11965;53.640;10.050;2023-06-10T07:50:57;101721.94;;;19.16;66.98
23574;BME280;11965;53.640;10.050;2023-06-10T07:53:26;101725.09;;;19.63;67.71
23574;BME280;11965;53.640;10.050;2023-06-10T07:55:53;101723.59;;;19.67;64.91
23574;BME280;11965;53.640;10.050;2023-06-10T07:58:20;101717.34;;;19.58;65.89
23574;BME280;11965;53.640;10.050;2023-06-10T08:00:48;101719.63;;;19.50;67.41
23574;BME280;11965;53.640;10.050;2023-06-10T08:03:15;101715.81;;;19.62;65.65
23574;BME280;11965;53.640;10.050;2023-06-10T08:05:41;101719.78;;;19.55;64.77
23574;BME280;11965;53.640;10.050;2023-06-10T08:08:08;101709.84;;;19.77;63.26
23574;BME280;11965;53.640;10.050;2023-06-10T08:10:36;101710.72;;;20.08;64.75
23574;BME280;11965;53.640;10.050;2023-06-10T08:13:03;101719.13;;;19.96;65.56
23574;BME280;11965;53.640;10.050;2023-06-10T08:15:30;101715.81;;;20.18;64.35
23574;BME280;11965;53.640;10.050;2023-06-10T08:17:57;101716.47;;;20.32;61.89
23574;BME280;11965;53.640;10.050;2023-06-10T08:20:24;101718.63;;;20.48;62.86
23574;BME280;11965;53.640;10.050;2023-06-10T08:22:51;101727.97;;;20.60;64.44
23574;BME280;11965;53.640;10.050;2023-06-10T08:25:18;101728.75;;;20.67;60.96
23574;BME280;11965;53.640;10.050;2023-06-10T08:27:48;101720.44;;;20.72;60.46
23574;BME280;11965;53.640;10.050;2023-06-10T08:30:16;101717.91;;;21.06;59.99
23574;BME280;11965;53.640;10.050;2023-06-10T08:32:43;101721.97;;;21.10;60.13
23574;BME280;11965;53.640;10.050;2023-06-10T08:35:10;101720.88;;;21.23;60.19
23574;BME280;11965;53.640;10.050;2023-06-10T08:37:37;101719.38;;;21.68;59.54
23574;BME280;11965;53.640;10.050;2023-06-10T08:40:05;101716.09;;;22.11;58.86
23574;BME280;11965;53.640;10.050;2023-06-10T08:42:34;101717.63;;;21.90;55.75
23574;BME280;11965;53.640;10.050;2023-06-10T08:45:07;101731.06;;;21.59;57.92
23574;BME280;11965;53.640;10.050;2023-06-10T08:47:39;101712.72;;;21.86;57.10
23574;BME280;11965;53.640;10.050;2023-06-10T08:50:10;101719.56;;;22.01;57.68
23574;BME280;11965;53.640;10.050;2023-06-10T08:52:41;101719.25;;;22.26;57.61
23574;BME280;11965;53.640;10.050;2023-06-10T08:55:12;101725.84;;;22.32;55.77
23574;BME280;11965;53.640;10.050;2023-06-10T08:57:41;101728.84;;;22.14;55.21
23574;BME280;11965;53.640;10.050;2023-06-10T09:00:12;101718.28;;;21.57;58.53
23574;BME280;11965;53.640;10.050;2023-06-10T09:02:39;101718.31;;;21.45;58.80
23574;BME280;11965;53.640;10.050;2023-06-10T09:05:07;101711.41;;;21.76;57.77
23574;BME280;11965;53.640;10.050;2023-06-10T09:07:35;101712.50;;;21.75;57.59
23574;BME280;11965;53.640;10.050;2023-06-10T09:10:04;101712.38;;;21.70;60.08
23574;BME280;11965;53.640;10.050;2023-06-10T09:12:33;101702.06;;;22.16;59.89
23574;BME280;11965;53.640;10.050;2023-06-10T09:15:00;101700.31;;;22.39;56.02
23574;BME280;11965;53.640;10.050;2023-06-10T09:17:29;101701.91;;;22.35;55.00
23574;BME280;11965;53.640;10.050;2023-06-10T09:19:56;101706.72;;;22.51;54.84
23574;BME280;11965;53.640;10.050;2023-06-10T09:22:23;101708.34;;;22.92;56.75
23574;BME280;11965;53.640;10.050;2023-06-10T09:24:59;101700.03;;;23.20;54.99
23574;BME280;11965;53.640;10.050;2023-06-10T09:27:29;101699.16;;;23.75;52.52
23574;BME280;11965;53.640;10.050;2023-06-10T09:29:56;101702.41;;;23.67;51.77
23574;BME280;11965;53.640;10.050;2023-06-10T09:32:24;101701.31;;;23.46;52.69
23574;BME280;11965;53.640;10.050;2023-06-10T09:34:53;101689.72;;;23.69;52.26
23574;BME280;11965;53.640;10.050;2023-06-10T09:37:20;101697.19;;;23.36;52.22
23574;BME280;11965;53.640;10.050;2023-06-10T09:40:02;101700.16;;;23.08;53.02
23574;BME280;11965;53.640;10.050;2023-06-10T09:42:33;101703.63;;;22.81;53.25
23574;BME280;11965;53.640;10.050;2023-06-10T09:45:01;101695.75;;;23.17;55.56
23574;BME280;11965;53.640;10.050;2023-06-10T09:47:28;101700.63;;;23.38;54.79
23574;BME280;11965;53.640;10.050;2023-06-10T09:49:56;101686.41;;;23.33;52.86
23574;BME280;11965;53.640;10.050;2023-06-10T09:52:24;101695.31;;;23.64;54.43
23574;BME280;11965;53.640;10.050;2023-06-10T09:54:51;101702.91;;;24.24;53.14
23574;BME280;11965;53.640;10.050;2023-06-10T09:57:19;101692.06;;;24.16;51.94
23574;BME280;11965;53.640;10.050;2023-06-10T09:59:46;101693.50;;;24.19;50.81
23574;BME280;11965;53.640;10.050;2023-06-10T10:02:17;101697.19;;;24.19;52.41
23574;BME280;11965;53.640;10.050;2023-06-10T10:04:44;101693.00;;;24.00;53.85
23574;BME280;11965;53.640;10.050;2023-06-10T10:07:13;101697.09;;;24.36;51.34
23574;BME280;11965;53.640;10.050;2023-06-10T10:09:42;101697.81;;;24.49;53.60
23574;BME280;11965;53.640;10.050;2023-06-10T10:12:10;101698.47;;;24.34;54.45
23574;BME280;11965;53.640;10.050;2023-06-10T10:14:39;101700.56;;;24.43;50.76
23574;BME280;11965;53.640;10.050;2023-06-10T10:17:10;101704.63;;;24.48;52.89
23574;BME280;11965;53.640;10.050;2023-06-10T10:19:50;101705.16;;;25.09;50.20
23574;BME280;11965;53.640;10.050;2023-06-10T10:22:26;101708.50;;;24.68;53.14
23574;BME280;11965;53.640;10.050;2023-06-10T10:24:59;101713.31;;;24.68;53.57
23574;BME280;11965;53.640;10.050;2023-06-10T10:27:33;101705.63;;;24.14;51.94
23574;BME280;11965;53.640;10.050;2023-06-10T10:30:03;101705.09;;;24.17;54.66
23574;BME280;11965;53.640;10.050;2023-06-10T10:32:39;101709.75;;;24.29;55.54
23574;BME280;11965;53.640;10.050;2023-06-10T10:35:14;101698.88;;;24.69;52.27
23574;BME280;11965;53.640;10.050;2023-06-10T10:37:43;101691.81;;;25.04;54.61
23574;BME280;11965;53.640;10.050;2023-06-10T10:40:12;101699.28;;;24.83;50.99
23574;BME280;11965;53.640;10.050;2023-06-10T10:42:41;101704.16;;;24.88;50.93
23574;BME280;11965;53.640;10.050;2023-06-10T10:45:09;101699.59;;;24.55;52.90
23574;BME280;11965;53.640;10.050;2023-06-10T10:47:37;101691.88;;;24.77;53.52
23574;BME280;11965;53.640;10.050;2023-06-10T10:50:14;101695.06;;;24.86;52.37
23574;BME280;11965;53.640;10.050;2023-06-10T10:52:54;101696.31;;;25.00;53.78
23574;BME280;11965;53.640;10.050;2023-06-10T10:55:22;101692.97;;;25.08;51.06
23574;BME280;11965;53.640;10.050;2023-06-10T10:57:57;101700.34;;;25.04;52.68
23574;BME280;11965;53.640;10.050;2023-06-10T11:00:27;101694.72;;;25.14;52.25
23574;BME280;11965;53.640;10.050;2023-06-10T11:02:58;101692.25;;;25.18;49.97
23574;BME280;11965;53.640;10.050;2023-06-10T11:05:36;101694.59;;;25.31;50.73
23574;BME280;11965;53.640;10.050;2023-06-10T11:08:07;101684.00;;;25.64;49.71
23574;BME280;11965;53.640;10.050;2023-06-10T11:10:35;101695.91;;;26.19;49.27
23574;BME280;11965;53.640;10.050;2023-06-10T11:13:06;101685.44;;;26.35;47.68
23574;BME280;11965;53.640;10.050;2023-06-10T11:15:39;101687.78;;;25.80;48.63
23574;BME280;11965;53.640;10.050;2023-06-10T11:18:14;101687.31;;;25.46;52.45
23574;BME280;11965;53.640;10.050;2023-06-10T11:20:51;101669.59;;;25.81;52.81
23574;BME280;11965;53.640;10.050;2023-06-10T11:23:39;101689.00;;;25.94;47.78
23574;BME280;11965;53.640;10.050;2023-06-10T11:26:30;101690.00;;;25.73;50.10
23574;BME280;11965;53.640;10.050;2023-06-10T11:29:03;101683.59;;;25.88;48.71
23574;BME280;11965;53.640;10.050;2023-06-10T11:31:31;101695.50;;;25.85;50.40
23574;BME280;11965;53.640;10.050;2023-06-10T11:34:00;101678.44;;;25.32;49.57
23574;BME280;11965;53.640;10.050;2023-06-10T11:36:29;101687.00;;;25.85;51.11
23574;BME280;11965;53.640;10.050;2023-06-10T11:38:58;101682.75;;;25.87;50.32
23574;BME280;11965;53.640;10.050;2023-06-10T11:41:27;101677.75;;;26.35;47.68
23574;BME280;11965;53.640;10.050;2023-06-10T11:43:55;101659.06;;;26.70;47.46
23574;BME280;11965;53.640;10.050;2023-06-10T11:46:22;101673.00;;;26.51;48.57
23574;BME280;11965;53.640;10.050;2023-06-10T11:48:54;101672.63;;;26.32;49.40
23574;BME280;11965;53.640;10.050;2023-06-10T11:51:21;101672.16;;;26.56;47.98
23574;BME280;11965;53.640;10.050;2023-06-10T11:53:48;101662.50;;;26.87;47.48
23574;BME280;11965;53.640;10.050;2023-06-10T11:56:21;101673.88;;;26.67;47.84
23574;BME280;11965;53.640;10.050;2023-06-10T11:58:53;101673.28;;;26.70;47.64
23574;BME280;11965;53.640;10.050;2023-06-10T12:01:21;101668.03;;;26.06;47.88
23574;BME280;11965;53.640;10.050;2023-06-10T12:03:56;101669.94;;;25.85;48.70
23574;BME280;11965;53.640;10.050;2023-06-10T12:06:23;101668.69;;;26.38;49.22
23574;BME280;11965;53.640;10.050;2023-06-10T12:08:50;101675.59;;;27.04;46.94
23574;BME280;11965;53.640;10.050;2023-06-10T12:11:17;101672.47;;;26.80;47.61
23574;BME280;11965;53.640;10.050;2023-06-10T12:13:50;101664.41;;;26.26;47.21
23574;BME280;11965;53.640;10.050;2023-06-10T12:16:17;101664.41;;;26.26;47.99
23574;BME280;11965;53.640;10.050;2023-06-10T12:18:45;101668.56;;;25.97;49.30
23574;BME280;11965;53.640;10.050;2023-06-10T12:21:17;101673.41;;;26.02;49.39
23574;BME280;11965;53.640;10.050;2023-06-10T12:24:03;101664.09;;;26.12;48.41
23574;BME280;11965;53.640;10.050;2023-06-10T12:26:41;101664.91;;;26.02;48.17
23574;BME280;11965;53.640;10.050;2023-06-10T12:29:19;101655.22;;;26.03;50.18
23574;BME280;11965;53.640;10.050;2023-06-10T12:31:55;101657.28;;;26.23;48.55
23574;BME280;11965;53.640;10.050;2023-06-10T12:34:34;101647.91;;;26.33;49.24
23574;BME280;11965;53.640;10.050;2023-06-10T12:37:02;101643.66;;;26.20;47.16
23574;BME280;11965;53.640;10.050;2023-06-10T12:39:31;101638.88;;;26.61;47.40
23574;BME280;11965;53.640;10.050;2023-06-10T12:41:59;101642.31;;;26.79;47.72
23574;BME280;11965;53.640;10.050;2023-06-10T12:44:31;101628.09;;;26.58;47.55